createdAt,value
2023-04-21T00:00:16.240Z,8.30
2023-04-21T00:02:46.700Z,8.93
2023-04-21T00:05:15.399Z,9.55
2023-04-21T00:07:45.981Z,8.98
2023-04-21T00:10:13.954Z,9.85
2023-04-21T00:12:42.118Z,9.65
2023-04-21T00:15:11.044Z,9.55
2023-04-21T00:17:39.228Z,9.70
2023-04-21T00:20:10.617Z,9.35
2023-04-21T00:22:38.676Z,9.18
2023-04-21T00:25:07.691Z,9.82
2023-04-21T00:27:35.666Z,10.15
2023-04-21T00:30:03.719Z,10.43
2023-04-21T00:32:32.003Z,10.38
2023-04-21T00:35:00.034Z,9.88
2023-04-21T00:37:29.324Z,10.63
2023-04-21T00:39:57.336Z,10.35
2023-04-21T00:42:25.652Z,10.90
2023-04-21T00:44:53.920Z,10.45
2023-04-21T00:47:21.973Z,10.10
2023-04-21T00:49:49.960Z,10.50
2023-04-21T00:52:20.230Z,11.27
2023-04-21T00:54:49.683Z,12.10
2023-04-21T00:57:17.972Z,11.85
2023-04-21T00:59:46.133Z,10.77
2023-04-21T01:02:16.270Z,11.00
2023-04-21T01:04:45.572Z,11.25
2023-04-21T01:07:14.100Z,10.95
2023-04-21T01:09:42.038Z,11.02
2023-04-21T01:12:13.326Z,10.73
2023-04-21T01:14:42.080Z,10.32
2023-04-21T01:17:10.577Z,10.60
2023-04-21T01:19:41.166Z,11.98
2023-04-21T01:22:12.342Z,11.68
2023-04-21T01:24:42.250Z,12.75
2023-04-21T01:27:12.004Z,12.90
2023-04-21T01:29:41.671Z,12.70
2023-04-21T01:32:11.923Z,12.00
2023-04-21T01:34:40.249Z,12.35
2023-04-21T01:37:10.599Z,11.70
2023-04-21T01:39:39.652Z,10.98
2023-04-21T01:42:08.652Z,11.05
2023-04-21T01:44:37.547Z,11.52
2023-04-21T01:47:06.483Z,11.52
2023-04-21T01:49:34.517Z,11.68
2023-04-21T01:52:02.476Z,12.57
2023-04-21T01:54:32.006Z,11.45
2023-04-21T01:56:59.918Z,12.10
2023-04-21T01:59:28.067Z,12.43
2023-04-21T02:01:56.020Z,12.32
2023-04-21T02:04:24.137Z,12.98
2023-04-21T02:06:52.165Z,12.73
2023-04-21T02:09:20.306Z,12.15
2023-04-21T02:11:49.849Z,12.88
2023-04-21T02:14:17.766Z,11.80
2023-04-21T02:16:45.823Z,11.20
2023-04-21T02:19:13.885Z,11.07
2023-04-21T02:21:41.845Z,10.57
2023-04-21T02:24:09.808Z,9.93
2023-04-21T02:26:37.798Z,9.13
2023-04-21T02:29:07.431Z,8.48
2023-04-21T02:31:43.314Z,8.50
2023-04-21T02:34:17.990Z,8.77
2023-04-21T02:36:45.969Z,8.20
2023-04-21T02:39:14.129Z,9.18
2023-04-21T02:41:42.082Z,9.70
2023-04-21T02:44:11.351Z,9.23
2023-04-21T02:46:41.854Z,8.95
2023-04-21T02:49:09.855Z,13.00
2023-04-21T02:51:37.875Z,11.25
2023-04-21T02:54:05.998Z,10.48
2023-04-21T02:56:36.676Z,9.35
2023-04-21T02:59:04.632Z,9.20
2023-04-21T03:01:33.953Z,8.68
2023-04-21T03:04:02.070Z,9.55
2023-04-21T03:06:30.200Z,10.05
2023-04-21T03:08:58.112Z,10.52
2023-04-21T03:11:26.083Z,10.38
2023-04-21T03:13:54.060Z,10.75
2023-04-21T03:16:22.942Z,11.57
2023-04-21T03:18:52.243Z,12.23
2023-04-21T03:21:21.275Z,11.93
2023-04-21T03:23:49.220Z,11.48
2023-04-21T03:26:17.405Z,12.45
2023-04-21T03:28:45.353Z,13.48
2023-04-21T03:31:13.317Z,12.38
2023-04-21T03:33:41.241Z,12.60
2023-04-21T03:36:11.103Z,12.45
2023-04-21T03:38:39.105Z,13.30
2023-04-21T03:41:07.196Z,13.10
2023-04-21T03:43:36.242Z,12.63
2023-04-21T03:46:04.411Z,12.65
2023-04-21T03:48:33.093Z,12.80
2023-04-21T03:51:00.959Z,13.50
2023-04-21T03:53:30.229Z,12.15
2023-04-21T03:55:58.176Z,12.18
2023-04-21T03:58:26.160Z,11.90
2023-04-21T04:00:54.174Z,11.35
2023-04-21T04:03:23.591Z,12.07
2023-04-21T04:05:51.753Z,12.43
2023-04-21T04:08:19.798Z,13.13
2023-04-21T04:10:49.079Z,13.50
2023-04-21T04:13:17.113Z,14.30
2023-04-21T04:15:45.209Z,14.07
2023-04-21T04:18:13.185Z,14.30
2023-04-21T04:20:41.187Z,14.52
2023-04-21T04:23:09.201Z,15.60
2023-04-21T04:25:37.250Z,14.43
2023-04-21T04:28:07.407Z,15.48
2023-04-21T04:30:35.428Z,14.38
2023-04-21T04:33:03.607Z,14.80
2023-04-21T04:35:31.658Z,14.98
2023-04-21T04:37:59.730Z,15.38
2023-04-21T04:40:28.743Z,15.70
2023-04-21T04:42:56.750Z,16.13
2023-04-21T04:45:29.716Z,15.55
2023-04-21T04:47:57.683Z,14.73
2023-04-21T04:50:25.729Z,14.20
2023-04-21T04:52:53.708Z,14.80
2023-04-21T04:55:22.166Z,14.27
2023-04-21T04:57:50.224Z,13.88
2023-04-21T05:00:18.753Z,40.08
2023-04-21T05:02:48.242Z,20.73
2023-04-21T05:05:16.576Z,15.60
2023-04-21T05:07:44.606Z,14.07
2023-04-21T05:10:12.915Z,14.75
2023-04-21T05:12:41.074Z,15.07
2023-04-21T05:15:10.315Z,14.65
2023-04-21T05:17:38.592Z,13.88
2023-04-21T05:20:09.323Z,14.15
2023-04-21T05:22:39.209Z,14.50
2023-04-21T05:25:07.883Z,14.15
2023-04-21T05:27:35.839Z,13.65
2023-04-21T05:30:03.808Z,13.10
2023-04-21T05:32:31.838Z,12.25
2023-04-21T05:35:00.325Z,12.18
2023-04-21T05:37:29.673Z,12.43
2023-04-21T05:39:57.717Z,12.15
2023-04-21T05:42:25.764Z,12.20
2023-04-21T05:44:54.191Z,12.50
2023-04-21T05:47:22.154Z,12.10
2023-04-21T05:49:53.810Z,13.18
2023-04-21T05:52:22.343Z,12.30
2023-04-21T05:54:51.636Z,12.07
2023-04-21T05:57:19.623Z,12.68
2023-04-21T05:59:47.613Z,12.05
2023-04-21T06:02:15.685Z,10.70
2023-04-21T06:04:44.432Z,11.43
2023-04-21T06:07:13.690Z,11.40
2023-04-21T06:09:42.232Z,11.95
2023-04-21T06:12:11.587Z,11.73
2023-04-21T06:14:39.591Z,12.27
2023-04-21T06:17:08.793Z,12.57
2023-04-21T06:19:41.964Z,13.52
2023-04-21T06:22:10.473Z,11.60
2023-04-21T06:24:38.429Z,12.40
2023-04-21T06:27:13.316Z,12.20
2023-04-21T06:29:42.617Z,12.40
2023-04-21T06:32:10.801Z,11.68
2023-04-21T06:34:39.260Z,11.90
2023-04-21T06:37:07.223Z,13.13
2023-04-21T06:39:35.323Z,12.18
2023-04-21T06:42:03.302Z,12.43
2023-04-21T06:44:33.562Z,11.70
2023-04-21T06:47:01.612Z,36.33
2023-04-21T06:49:29.684Z,19.35
2023-04-21T06:51:57.724Z,13.38
2023-04-21T06:54:25.596Z,14.75
2023-04-21T06:56:53.515Z,12.23
2023-04-21T06:59:21.664Z,11.07
2023-04-21T07:01:52.334Z,11.32
2023-04-21T07:04:20.558Z,11.57
2023-04-21T07:06:49.627Z,11.85
2023-04-21T07:09:18.450Z,14.15
2023-04-21T07:11:46.732Z,14.93
2023-04-21T07:14:14.692Z,11.85
2023-04-21T07:16:42.862Z,11.68
2023-04-21T07:19:12.258Z,10.88
2023-04-21T07:21:40.222Z,11.27
2023-04-21T07:24:08.876Z,10.90
2023-04-21T07:26:36.900Z,10.15
2023-04-21T07:29:04.875Z,10.32
2023-04-21T07:31:32.896Z,10.90
2023-04-21T07:34:01.403Z,10.68
2023-04-21T07:36:31.704Z,14.70
2023-04-21T07:39:00.251Z,13.02
2023-04-21T07:41:29.364Z,11.65
2023-04-21T07:43:57.397Z,11.70
2023-04-21T07:46:30.190Z,14.73
2023-04-21T07:48:58.909Z,12.20
2023-04-21T07:51:28.347Z,12.90
2023-04-21T07:53:57.712Z,11.60
2023-04-21T07:56:25.827Z,11.57
2023-04-21T07:58:53.770Z,11.20
2023-04-21T08:01:22.432Z,11.48
2023-04-21T08:03:50.670Z,12.40
2023-04-21T08:06:18.693Z,12.52
2023-04-21T08:08:46.939Z,11.00
2023-04-21T08:11:16.288Z,11.55
2023-04-21T08:13:44.249Z,11.68
2023-04-21T08:16:12.320Z,10.70
2023-04-21T08:18:40.395Z,11.93
2023-04-21T08:21:08.356Z,10.68
2023-04-21T08:23:36.480Z,10.07
2023-04-21T08:26:04.594Z,10.05
2023-04-21T08:28:34.019Z,9.23
2023-04-21T08:31:02.373Z,8.70
2023-04-21T08:33:30.775Z,8.23
2023-04-21T08:36:05.421Z,8.40
2023-04-21T08:38:37.967Z,8.82
2023-04-21T08:41:09.267Z,7.95
2023-04-21T08:43:38.658Z,7.72
2023-04-21T08:46:09.461Z,7.40
2023-04-21T08:48:38.393Z,7.65
2023-04-21T08:51:10.913Z,7.65
2023-04-21T08:53:39.317Z,7.43
2023-04-21T08:56:11.141Z,7.80
2023-04-21T08:58:41.770Z,8.10
2023-04-21T09:01:10.132Z,6.75
2023-04-21T09:03:38.668Z,7.65
2023-04-21T09:06:09.637Z,7.63
2023-04-21T09:08:39.970Z,7.63
2023-04-21T09:11:07.941Z,7.30
2023-04-21T09:13:37.658Z,7.55
2023-04-21T09:16:17.781Z,7.40
2023-04-21T09:18:46.289Z,7.63
2023-04-21T09:21:15.533Z,7.43
2023-04-21T09:23:45.108Z,7.47
2023-04-21T09:26:13.566Z,6.70
2023-04-21T09:28:44.945Z,7.10
2023-04-21T09:31:17.533Z,7.03
2023-04-21T09:36:22.204Z,7.05
2023-04-21T09:39:25.121Z,7.55
2023-04-21T09:41:46.682Z,7.20
2023-04-21T09:44:14.744Z,6.68
2023-04-21T09:46:45.233Z,6.90
2023-04-21T09:49:14.822Z,7.07
2023-04-21T09:52:10.240Z,6.70
2023-04-21T09:54:34.081Z,6.30
2023-04-21T09:57:04.927Z,6.43
2023-04-21T09:59:36.581Z,7.05
2023-04-21T10:02:08.375Z,7.15
2023-04-21T10:04:38.861Z,7.13
2023-04-21T10:07:08.160Z,8.13
2023-04-21T10:09:41.686Z,7.10
2023-04-21T10:12:11.147Z,7.40
2023-04-21T10:14:39.215Z,8.88
2023-04-21T10:17:10.793Z,10.50
2023-04-21T10:19:48.551Z,7.65
2023-04-21T10:22:27.369Z,8.13
2023-04-21T10:24:56.951Z,8.13
2023-04-21T10:27:35.756Z,9.07
2023-04-21T10:30:19.545Z,8.93
2023-04-21T10:32:48.960Z,9.00
2023-04-21T10:35:22.745Z,9.80
2023-04-21T10:37:52.230Z,9.88
2023-04-21T10:40:44.421Z,9.88
2023-04-21T10:43:49.858Z,9.95
2023-04-21T10:46:34.771Z,9.73
2023-04-21T10:49:08.794Z,9.57
2023-04-21T10:52:04.271Z,10.65
2023-04-21T10:54:41.535Z,10.80
2023-04-21T10:57:11.367Z,9.85
2023-04-21T10:59:39.780Z,10.75
2023-04-21T11:02:09.150Z,11.02
2023-04-21T11:04:40.307Z,10.13
2023-04-21T11:07:09.298Z,10.98
2023-04-21T11:09:38.549Z,10.48
2023-04-21T11:12:08.659Z,10.07
2023-04-21T11:14:38.048Z,10.18
2023-04-21T11:17:11.692Z,10.25
2023-04-21T11:19:41.154Z,9.85
2023-04-21T11:22:09.156Z,9.98
2023-04-21T11:24:37.141Z,10.20
2023-04-21T11:27:09.126Z,10.38
2023-04-21T11:29:37.160Z,9.68
2023-04-21T11:32:07.544Z,9.70
2023-04-21T11:34:37.693Z,10.00
2023-04-21T11:37:09.123Z,9.32
2023-04-21T11:39:37.193Z,10.18
2023-04-21T11:42:05.287Z,9.15
2023-04-21T11:44:37.011Z,8.98
2023-04-21T11:47:16.003Z,9.25
2023-04-21T11:49:48.446Z,9.20
2023-04-21T11:52:25.369Z,8.52
2023-04-21T11:54:57.929Z,8.65
2023-04-21T11:57:26.555Z,8.38
2023-04-21T11:59:54.712Z,8.35
2023-04-21T12:02:25.252Z,8.88
2023-04-21T12:05:05.114Z,7.95
2023-04-21T12:07:36.723Z,8.05
2023-04-21T12:10:11.738Z,7.30
2023-04-21T12:12:40.412Z,7.90
2023-04-21T12:15:09.893Z,7.57
2023-04-21T12:17:39.551Z,7.43
2023-04-21T12:20:09.737Z,6.85
2023-04-21T12:22:39.307Z,6.75
2023-04-21T12:25:08.969Z,6.20
2023-04-21T12:27:37.068Z,6.22
2023-04-21T12:30:06.190Z,6.65
2023-04-21T12:32:34.228Z,5.93
2023-04-21T12:35:02.356Z,5.05
2023-04-21T12:37:30.826Z,4.57
2023-04-21T12:40:00.234Z,4.43
2023-04-21T12:42:28.185Z,4.63
2023-04-21T12:44:56.911Z,6.95
2023-04-21T12:47:25.059Z,6.43
2023-04-21T12:49:53.102Z,4.20
2023-04-21T12:52:21.070Z,4.30
2023-04-21T12:54:48.970Z,4.72
2023-04-21T12:57:18.430Z,4.32
2023-04-21T12:59:47.887Z,4.32
2023-04-21T13:02:16.317Z,4.53
2023-04-21T13:04:44.575Z,3.88
2023-04-21T13:07:12.701Z,4.22
2023-04-21T13:09:40.749Z,4.20
2023-04-21T13:12:09.119Z,4.32
2023-04-21T13:14:38.480Z,3.80
2023-04-21T13:17:06.479Z,4.43
2023-04-21T13:19:35.191Z,3.88
2023-04-21T13:22:03.235Z,3.58
2023-04-21T13:24:31.402Z,4.15
2023-04-21T13:26:59.497Z,3.28
2023-04-21T13:29:30.245Z,3.30
2023-04-21T13:31:59.837Z,3.20
2023-04-21T13:34:28.146Z,3.33
2023-04-21T13:36:56.105Z,2.53
2023-04-21T13:39:24.192Z,2.65
2023-04-21T13:41:54.093Z,2.50
2023-04-21T13:44:22.442Z,2.65
2023-04-21T13:46:52.221Z,2.33
2023-04-21T13:49:22.136Z,2.35
2023-04-21T13:51:50.154Z,2.35
2023-04-21T13:54:18.152Z,2.40
2023-04-21T13:56:46.223Z,1.85
2023-04-21T13:59:16.573Z,2.00
2023-04-21T14:01:44.661Z,2.13
2023-04-21T14:04:12.859Z,2.03
2023-04-21T14:06:42.308Z,2.30
2023-04-21T14:09:10.922Z,2.05
2023-04-21T14:11:38.877Z,2.40
2023-04-21T14:14:09.962Z,2.10
2023-04-21T14:16:38.943Z,1.83
2023-04-21T14:19:07.625Z,1.63
2023-04-21T14:21:35.678Z,1.33
2023-04-21T14:24:05.265Z,1.45
2023-04-21T14:26:33.383Z,2.08
2023-04-21T14:29:01.746Z,2.05
2023-04-21T14:31:29.875Z,5.65
2023-04-21T14:33:58.030Z,3.22
2023-04-21T14:36:27.948Z,2.95
2023-04-21T14:38:56.386Z,1.60
2023-04-21T14:41:25.888Z,5.03
2023-04-21T14:43:56.525Z,1.88
2023-04-21T14:46:24.814Z,2.13
2023-04-21T14:48:52.954Z,1.90
2023-04-21T14:51:21.578Z,1.75
2023-04-21T14:53:49.551Z,1.83
2023-04-21T14:56:17.722Z,2.00
2023-04-21T14:58:47.088Z,1.77
2023-04-21T15:01:15.308Z,1.60
2023-04-21T15:03:43.409Z,1.83
2023-04-21T15:06:11.552Z,1.73
2023-04-21T15:08:40.215Z,1.73
2023-04-21T15:11:08.329Z,1.80
2023-04-21T15:13:36.480Z,1.73
2023-04-21T15:16:06.486Z,1.63
2023-04-21T15:18:34.508Z,2.03
2023-04-21T15:21:02.522Z,2.20
2023-04-21T15:23:30.536Z,1.83
2023-04-21T15:25:58.741Z,2.00
2023-04-21T15:28:26.802Z,2.10
2023-04-21T15:30:54.817Z,2.30
2023-04-21T15:33:24.281Z,2.00
2023-04-21T15:35:52.292Z,2.15
2023-04-21T15:38:21.208Z,2.08
2023-04-21T15:41:00.263Z,2.08
2023-04-21T15:43:29.709Z,2.22
2023-04-21T15:45:57.763Z,2.20
2023-04-21T15:48:27.222Z,2.15
2023-04-21T15:50:55.338Z,3.10
2023-04-21T15:53:23.295Z,2.25
2023-04-21T15:55:52.319Z,2.10
2023-04-21T15:58:22.259Z,2.20
2023-04-21T16:00:50.329Z,2.15
2023-04-21T16:03:18.571Z,2.15
2023-04-21T16:05:48.227Z,2.53
2023-04-21T16:08:16.352Z,1.98
2023-04-21T16:10:44.306Z,1.90
2023-04-21T16:13:12.464Z,2.80
2023-04-21T16:15:40.606Z,2.28
2023-04-21T16:18:08.769Z,2.17
2023-04-21T16:20:37.898Z,1.80
2023-04-21T16:23:07.743Z,2.00
2023-04-21T16:25:35.841Z,1.92
2023-04-21T16:28:03.960Z,1.92
2023-04-21T16:30:31.922Z,1.83
2023-04-21T16:32:59.933Z,1.60
2023-04-21T16:35:28.008Z,2.00
2023-04-21T16:37:56.600Z,1.90
2023-04-21T16:40:26.081Z,1.77
2023-04-21T16:42:53.955Z,1.80
2023-04-21T16:45:22.140Z,2.58
2023-04-21T16:47:50.350Z,2.33
2023-04-21T16:50:18.434Z,1.92
2023-04-21T16:52:46.744Z,2.45
2023-04-21T16:55:14.800Z,2.35
2023-04-21T16:57:44.159Z,2.60
2023-04-21T17:00:12.963Z,2.40
2023-04-21T17:02:41.138Z,2.60
2023-04-21T17:05:10.016Z,2.30
2023-04-21T17:07:39.348Z,2.58
2023-04-21T17:10:08.400Z,2.50
2023-04-21T17:12:36.489Z,2.30
2023-04-21T17:15:07.409Z,2.15
2023-04-21T17:17:42.555Z,2.50
2023-04-21T17:20:12.361Z,2.50
2023-04-21T17:22:41.182Z,2.42
2023-04-21T17:25:10.221Z,2.20
2023-04-21T17:27:40.796Z,2.63
2023-04-21T17:30:11.375Z,2.50
2023-04-21T17:32:40.548Z,2.20
2023-04-21T17:35:09.300Z,2.50
2023-04-21T17:37:37.460Z,3.65
2023-04-21T17:40:07.290Z,2.38
2023-04-21T17:42:35.265Z,2.42
2023-04-21T17:45:05.440Z,2.00
2023-04-21T17:47:34.995Z,2.33
2023-04-21T17:50:03.278Z,2.53
2023-04-21T17:52:31.489Z,2.80
2023-04-21T17:54:59.401Z,2.17
2023-04-21T17:57:27.324Z,2.50
2023-04-21T17:59:55.925Z,2.10
2023-04-21T18:02:24.532Z,2.20
2023-04-21T18:04:54.221Z,2.15
2023-04-21T18:07:22.358Z,2.33
2023-04-21T18:09:51.581Z,2.40
2023-04-21T18:12:19.826Z,2.17
2023-04-21T18:14:47.784Z,2.20
2023-04-21T18:17:17.420Z,2.40
2023-04-21T18:19:45.697Z,2.22
2023-04-21T18:22:15.123Z,2.35
2023-04-21T18:24:43.053Z,2.03
2023-04-21T18:27:11.374Z,2.42
2023-04-21T18:29:39.271Z,2.28
2023-04-21T18:32:07.596Z,2.10
2023-04-21T18:34:36.285Z,2.00
2023-04-21T18:37:04.471Z,2.40
2023-04-21T18:39:33.904Z,3.42
2023-04-21T18:42:03.395Z,8.55
2023-04-21T18:44:31.395Z,4.97
2023-04-21T18:46:59.608Z,3.28
2023-04-21T18:49:27.625Z,3.15
2023-04-21T18:51:56.379Z,4.28
2023-04-21T18:54:24.462Z,3.20
2023-04-21T18:56:53.837Z,3.17
2023-04-21T18:59:22.230Z,5.55
2023-04-21T19:01:50.353Z,12.48
2023-04-21T19:04:18.963Z,7.03
2023-04-21T19:06:47.702Z,4.97
2023-04-21T19:09:15.976Z,6.15
2023-04-21T19:11:44.275Z,18.85
2023-04-21T19:14:13.763Z,8.68
2023-04-21T19:16:42.293Z,10.45
2023-04-21T19:19:10.892Z,8.27
2023-04-21T19:21:38.976Z,4.60
2023-04-21T19:24:08.006Z,4.70
2023-04-21T19:26:36.136Z,5.05
2023-04-21T19:29:04.963Z,4.28
2023-04-21T19:31:34.836Z,4.40
2023-04-21T19:34:03.096Z,4.43
2023-04-21T19:36:31.502Z,4.72
2023-04-21T19:38:59.608Z,5.18
2023-04-21T19:41:27.799Z,4.63
2023-04-21T19:43:56.064Z,4.45
2023-04-21T19:46:24.695Z,5.38
2023-04-21T19:48:54.783Z,59.35
2023-04-21T19:51:23.760Z,108.35
2023-04-21T19:54:03.243Z,82.15
2023-04-21T19:56:38.742Z,31.33
2023-04-21T19:59:06.914Z,11.70
2023-04-21T20:01:35.366Z,5.35
2023-04-21T20:04:05.957Z,6.63
2023-04-21T20:06:35.539Z,4.65
2023-04-21T20:09:06.064Z,4.40
2023-04-21T20:11:34.750Z,5.28
2023-04-21T20:14:03.412Z,4.88
2023-04-21T20:16:32.063Z,5.22
2023-04-21T20:19:00.406Z,5.10
2023-04-21T20:21:29.883Z,5.15
2023-04-21T20:23:57.781Z,4.72
2023-04-21T20:26:25.977Z,4.90
2023-04-21T20:28:53.956Z,5.45
2023-04-21T20:31:25.362Z,6.18
2023-04-21T20:33:53.521Z,5.05
2023-04-21T20:36:22.259Z,5.72
2023-04-21T20:38:52.021Z,5.85
2023-04-21T20:41:23.316Z,6.30
2023-04-21T20:43:51.989Z,6.20
2023-04-21T20:46:20.499Z,5.97
2023-04-21T20:48:48.653Z,5.95
2023-04-21T20:51:16.730Z,5.75
2023-04-21T20:53:44.867Z,5.72
2023-04-21T20:56:14.275Z,5.72
2023-04-21T20:58:42.379Z,6.00
2023-04-21T21:01:10.602Z,6.60
2023-04-21T21:03:39.041Z,6.82
2023-04-21T21:06:07.801Z,6.78
2023-04-21T21:08:35.854Z,6.00
2023-04-21T21:11:03.868Z,6.18
2023-04-21T21:13:33.532Z,7.22
2023-04-21T21:16:03.417Z,6.10
2023-04-21T21:18:34.509Z,6.35
2023-04-21T21:21:06.677Z,6.65
2023-04-21T21:23:34.679Z,6.13
2023-04-21T21:26:02.822Z,5.85
2023-04-21T21:28:32.311Z,6.75
2023-04-21T21:31:00.659Z,6.28
2023-04-21T21:33:28.750Z,5.97
2023-04-21T21:35:56.835Z,6.53
2023-04-21T21:38:24.882Z,5.25
2023-04-21T21:40:52.931Z,5.60
2023-04-21T21:43:21.153Z,5.85
2023-04-21T21:45:50.658Z,5.60
2023-04-21T21:48:18.756Z,5.32
2023-04-21T21:50:47.045Z,7.18
2023-04-21T21:53:15.629Z,7.85
2023-04-21T21:55:44.285Z,7.85
2023-04-21T21:58:12.757Z,6.25
2023-04-21T22:00:41.878Z,6.13
2023-04-21T22:03:11.742Z,6.50
2023-04-21T22:05:40.330Z,6.45
2023-04-21T22:08:08.836Z,5.68
2023-04-21T22:10:37.090Z,5.50
2023-04-21T22:13:05.217Z,5.45
2023-04-21T22:15:34.714Z,5.53
2023-04-21T22:18:04.268Z,6.00
2023-04-21T22:20:33.999Z,5.68
2023-04-21T22:23:02.178Z,6.18
2023-04-21T22:25:32.752Z,5.90
2023-04-21T22:28:01.032Z,5.00
2023-04-21T22:30:29.193Z,4.40
2023-04-21T22:32:57.410Z,4.03
2023-04-21T22:35:25.897Z,3.28
2023-04-21T22:37:55.300Z,3.20
2023-04-21T22:40:23.451Z,3.63
2023-04-21T22:42:51.765Z,3.58
2023-04-21T22:45:19.783Z,4.00
2023-04-21T22:47:49.248Z,4.38
2023-04-21T22:50:17.329Z,3.20
2023-04-21T22:52:45.523Z,3.22
2023-04-21T22:55:15.071Z,3.10
2023-04-21T22:57:44.108Z,3.80
2023-04-21T23:00:12.942Z,4.13
2023-04-21T23:02:41.168Z,3.88
2023-04-21T23:05:10.177Z,3.45
2023-04-21T23:07:38.287Z,3.40
2023-04-21T23:10:07.028Z,2.33
2023-04-21T23:12:36.442Z,2.83
2023-04-21T23:15:04.754Z,2.47
2023-04-21T23:17:32.759Z,2.33
2023-04-21T23:20:05.516Z,2.22
2023-04-21T23:22:33.944Z,1.95
2023-04-21T23:25:01.977Z,1.92
2023-04-21T23:27:30.188Z,2.00
2023-04-21T23:29:59.821Z,1.67
2023-04-21T23:32:27.975Z,1.90
2023-04-21T23:34:56.078Z,1.30
2023-04-21T23:37:24.378Z,1.58
2023-04-21T23:39:52.424Z,1.35
2023-04-21T23:42:20.576Z,1.55
2023-04-21T23:44:48.564Z,1.58
2023-04-21T23:47:18.202Z,1.40
2023-04-21T23:49:46.292Z,1.50
2023-04-21T23:52:14.984Z,1.55
2023-04-21T23:54:42.996Z,1.45
2023-04-21T23:57:11.335Z,1.60
2023-04-21T23:59:40.091Z,1.25
